Terminal Aerodrome Forecast
Issued by NWS Flagstaff, AZ

Home | Current Version | Previous Version | Text Only | Print | Product List | Glossary On
Versions: 1 2 3 4 5 6 7 8 9 10 11 12
000
FTUS45 KFGZ 200541
TAFINW
TAF
KINW 200541Z 2006/2106 VRB06KT P6SM SCT250
     FM201500 18020G30KT P6SM BKN100
     FM201800 19022G36KT P6SM OVC050
      TEMPO 2018/2022 P6SM -SHRA OVC050
     FM202200 22020G40KT 6SM -SHSNRA OVC030
     FM210100 22011G24KT 2SM -SHSN OVC020=

USA.gov is the U.S. government's official web portal to all federal, state and local government web resources and services.